Portada
METAR-TAF:

METAR-TAF

Aeroports :

Vítsiebsk, Bielorússia

latitud: 55-10N, longitud: 030-13E, altitud: 176 m

Observació

L'informe es va fer fa 29 minuts, a les 15:00 UTC
Vent 6 kt del Sud
Temperatura 27°C
Humitat 37%
Pressió 1024 hPa
Visibilitat 10 km o més
sense núvols per sota de 1500 mi sense presència de cumulonimbus.

METAR: UMII 181500Z 17003MPS CAVOK 27/11 Q1024 R23/CLRD// NOSIG

Hora: 18:29 (15:29 UTC)

Pronòstic

L'informe es va fer fa 1 hora i 27 minuts, a les 14:02 UTC
Pronòstic vàlid del 18 a les 15 UTC al 18 a les 24 UTC
Vent 6 kt del Sud-Est
Visibilitat 10 km o més
sense núvols per sota de 1500 mi sense presència de cumulonimbus.
Temporalment
l' 18 a les 15 UTC al 18 a les 24 UTC
Vent 12 kt del Sud/Sud-Est

TAF: UMII 181402Z 1815/1824 14003MPS CAVOK TEMPO 1815/1824 16006MPS

Observacions i pronòstics meteorològics de més de 4000 aeroports (METAR i TAF).

Les estacions disponibles són els punts grocs i vermells al mapa.

Posi el ratolí al punt desitjat per veure el nom de l'estació.

Feu clic per veure les observacions i els pronòstics meteorològics.

Per canviar el mapa: feu clic els botons verds amb una creu de color negre per apropar; al botó verd amb un guió per allunyar la imatge; o en les fletxes verdes per a mapes adjacents.


METAR-TAF: